createdAt,value
2017-05-19T00:00:12.477Z,4
2017-05-19T00:10:12.483Z,4
2017-05-19T00:20:12.471Z,4
2017-05-19T00:30:12.446Z,4
2017-05-19T00:40:12.608Z,4
2017-05-19T00:50:12.564Z,4
2017-05-19T01:00:12.532Z,4
2017-05-19T01:10:12.488Z,4
2017-05-19T01:20:12.441Z,4
2017-05-19T01:30:12.425Z,4
2017-05-19T01:40:12.470Z,4
2017-05-19T01:50:12.476Z,4
2017-05-19T02:00:12.507Z,4
2017-05-19T02:10:12.553Z,4
2017-05-19T02:20:12.492Z,4
2017-05-19T02:30:12.620Z,4
2017-05-19T02:40:12.540Z,4
2017-05-19T02:50:12.618Z,4
2017-05-19T03:00:12.521Z,8
2017-05-19T03:10:12.619Z,20
2017-05-19T03:20:12.542Z,28
2017-05-19T03:30:12.708Z,52
2017-05-19T03:40:12.590Z,104
2017-05-19T03:50:12.573Z,444
2017-05-19T04:00:12.678Z,532
2017-05-19T04:10:12.579Z,1000
2017-05-19T04:20:12.654Z,1764
2017-05-19T04:30:12.631Z,976
2017-05-19T04:40:12.634Z,1348
2017-05-19T04:50:12.644Z,1756
2017-05-19T05:00:12.734Z,4412
2017-05-19T05:10:12.707Z,2628
2017-05-19T05:20:12.659Z,2256
2017-05-19T05:30:12.724Z,2304
2017-05-19T05:40:12.762Z,1924
2017-05-19T05:50:12.726Z,2392
2017-05-19T06:00:12.767Z,2260
2017-05-19T06:10:12.791Z,2960
2017-05-19T06:20:12.787Z,3672
2017-05-19T06:30:12.795Z,4340
2017-05-19T06:40:12.805Z,5772
2017-05-19T06:50:13.809Z,5936
2017-05-19T07:00:12.897Z,5664
2017-05-19T07:10:12.801Z,6816
2017-05-19T07:20:12.929Z,8808
2017-05-19T07:30:13.004Z,5708
2017-05-19T07:40:13.842Z,6388
2017-05-19T07:50:14.933Z,8352
2017-05-19T08:00:30.103Z,7436
2017-05-19T08:30:26.791Z,6648
2017-05-19T08:40:16.835Z,9396
2017-05-19T08:50:22.030Z,8596
2017-05-19T09:00:17.943Z,12440
2017-05-19T09:10:17.600Z,13640
2017-05-19T09:20:12.858Z,14748
2017-05-19T09:30:12.875Z,12488
2017-05-19T09:40:24.152Z,10708
2017-05-19T10:00:23.378Z,13036
2017-05-19T10:10:12.875Z,16056
2017-05-19T10:20:12.903Z,15076
2017-05-19T10:30:12.879Z,20960
2017-05-19T10:40:12.865Z,21088
2017-05-19T10:50:12.960Z,18116
2017-05-19T11:00:12.861Z,16496
2017-05-19T11:10:12.940Z,11984
2017-05-19T11:20:13.045Z,8412
2017-05-19T11:30:12.928Z,4784
2017-05-19T11:40:12.951Z,4568
2017-05-19T11:50:13.076Z,4860
2017-05-19T12:00:12.964Z,7132
2017-05-19T12:10:13.004Z,5012
2017-05-19T12:20:12.974Z,6028
2017-05-19T12:30:13.088Z,4596
2017-05-19T12:40:13.011Z,4376
2017-05-19T12:50:13.004Z,4172
2017-05-19T13:00:13.624Z,4460
2017-05-19T13:10:13.461Z,9468
2017-05-19T13:20:13.653Z,6764
2017-05-19T13:30:13.103Z,3384
2017-05-19T13:40:12.951Z,3380
2017-05-19T13:50:12.898Z,1184
2017-05-19T14:00:12.982Z,5524
2017-05-19T14:10:12.971Z,8588
2017-05-19T14:20:12.936Z,2988
2017-05-19T14:30:12.886Z,6600
2017-05-19T14:40:12.923Z,7312
2017-05-19T14:50:12.982Z,5632
2017-05-19T15:00:12.912Z,5032
2017-05-19T15:10:12.928Z,2692
2017-05-19T15:20:12.975Z,2208
2017-05-19T15:30:12.918Z,3240
2017-05-19T15:40:13.021Z,2084
2017-05-19T15:50:12.914Z,2916
2017-05-19T16:00:12.891Z,2332
2017-05-19T16:10:12.872Z,2508
2017-05-19T16:20:12.880Z,2824
2017-05-19T16:30:12.986Z,2524
2017-05-19T16:40:13.101Z,1652
2017-05-19T16:50:12.981Z,2008
2017-05-19T17:00:12.869Z,1512
2017-05-19T17:10:12.927Z,2480
2017-05-19T17:20:12.866Z,2680
2017-05-19T17:30:12.858Z,1680
2017-05-19T17:40:12.915Z,1984
2017-05-19T17:50:12.971Z,1980
2017-05-19T18:00:12.872Z,1972
2017-05-19T18:10:12.880Z,852
2017-05-19T18:20:12.941Z,832
2017-05-19T18:30:12.891Z,804
2017-05-19T18:40:14.607Z,692
2017-05-19T18:50:57.149Z,1080
2017-05-19T19:10:12.873Z,248
2017-05-19T19:20:12.851Z,112
2017-05-19T19:30:12.867Z,48
2017-05-19T19:40:13.761Z,20
2017-05-19T19:50:12.844Z,8
2017-05-19T20:00:12.860Z,4
2017-05-19T20:10:12.888Z,4
2017-05-19T20:20:12.848Z,4
2017-05-19T20:30:12.844Z,4
2017-05-19T20:40:12.938Z,4
2017-05-19T20:50:12.850Z,4
2017-05-19T21:00:12.895Z,4
2017-05-19T21:10:12.878Z,4
2017-05-19T21:20:12.845Z,4
2017-05-19T21:30:12.854Z,4
2017-05-19T21:40:12.869Z,4
2017-05-19T21:50:12.831Z,4
2017-05-19T22:00:12.838Z,4
2017-05-19T22:10:12.917Z,4
2017-05-19T22:20:12.829Z,4
2017-05-19T22:30:12.834Z,4
2017-05-19T22:40:13.063Z,4
2017-05-19T22:50:13.464Z,4
2017-05-19T23:00:12.882Z,4
2017-05-19T23:10:12.837Z,4
2017-05-19T23:20:13.878Z,4
2017-05-19T23:30:13.655Z,4
2017-05-19T23:40:12.835Z,4
2017-05-19T23:50:12.889Z,4
